createdAt,value
2022-10-10T00:00:49.213Z,9.98
2022-10-10T00:01:49.224Z,9.99
2022-10-10T00:02:49.531Z,9.98
2022-10-10T00:03:49.180Z,9.93
2022-10-10T00:04:49.232Z,9.93
2022-10-10T00:05:49.163Z,9.94
2022-10-10T00:06:49.146Z,9.88
2022-10-10T00:07:49.146Z,9.91
2022-10-10T00:08:49.124Z,9.90
2022-10-10T00:09:49.115Z,9.90
2022-10-10T00:10:49.127Z,9.88
2022-10-10T00:11:49.086Z,9.88
2022-10-10T00:12:49.456Z,9.90
2022-10-10T00:13:49.074Z,9.88
2022-10-10T00:14:49.066Z,9.88
2022-10-10T00:15:49.135Z,9.90
2022-10-10T00:16:49.048Z,9.90
2022-10-10T00:17:49.027Z,9.93
2022-10-10T00:18:49.030Z,9.93
2022-10-10T00:19:49.018Z,9.96
2022-10-10T00:20:49.006Z,9.96
2022-10-10T00:21:48.996Z,9.99
2022-10-10T00:22:49.311Z,9.98
2022-10-10T00:23:48.994Z,9.98
2022-10-10T00:24:48.937Z,9.99
2022-10-10T00:25:48.970Z,9.98
2022-10-10T00:26:48.940Z,9.99
2022-10-10T00:27:48.919Z,9.91
2022-10-10T00:28:48.901Z,9.93
2022-10-10T00:29:48.898Z,9.91
2022-10-10T00:30:48.910Z,9.90
2022-10-10T00:31:48.879Z,9.91
2022-10-10T00:32:49.196Z,9.91
2022-10-10T00:33:48.871Z,9.90
2022-10-10T00:34:48.863Z,9.90
2022-10-10T00:35:48.869Z,9.87
2022-10-10T00:36:48.818Z,9.88
2022-10-10T00:37:48.820Z,9.88
2022-10-10T00:38:48.802Z,9.87
2022-10-10T00:39:48.781Z,9.85
2022-10-10T00:40:48.789Z,9.84
2022-10-10T00:41:48.763Z,9.83
2022-10-10T00:42:49.088Z,9.85
2022-10-10T00:43:48.745Z,9.85
2022-10-10T00:44:48.740Z,9.90
2022-10-10T00:45:52.704Z,9.88
2022-10-10T00:46:48.712Z,9.90
2022-10-10T00:47:48.689Z,9.91
2022-10-10T00:48:48.693Z,9.93
2022-10-10T00:49:48.695Z,9.90
2022-10-10T00:50:48.681Z,9.88
2022-10-10T00:51:48.648Z,9.87
2022-10-10T00:52:48.868Z,9.87
2022-10-10T00:53:48.623Z,9.88
2022-10-10T00:54:51.681Z,9.85
2022-10-10T00:55:53.666Z,9.84
2022-10-10T00:56:57.273Z,9.84
2022-10-10T00:57:48.595Z,9.83
2022-10-10T00:58:48.574Z,9.81
2022-10-10T00:59:48.566Z,9.81
2022-10-10T01:00:48.620Z,9.81
2022-10-10T01:01:48.585Z,9.80
2022-10-10T01:02:48.922Z,9.81
2022-10-10T01:03:48.522Z,9.81
2022-10-10T01:04:48.505Z,9.80
2022-10-10T01:05:48.519Z,9.83
2022-10-10T01:06:48.494Z,9.81
2022-10-10T01:07:48.494Z,9.85
2022-10-10T01:08:48.468Z,9.85
2022-10-10T01:09:48.476Z,9.84
2022-10-10T01:10:48.446Z,9.85
2022-10-10T01:11:48.457Z,9.84
2022-10-10T01:12:48.783Z,9.84
2022-10-10T01:13:48.409Z,9.84
2022-10-10T01:14:48.408Z,9.85
2022-10-10T01:15:48.444Z,9.84
2022-10-10T01:16:48.391Z,9.85
2022-10-10T01:17:48.440Z,9.83
2022-10-10T01:18:48.395Z,9.81
2022-10-10T01:19:48.378Z,9.83
2022-10-10T01:20:48.348Z,9.80
2022-10-10T01:21:48.341Z,9.80
2022-10-10T01:22:48.647Z,9.81
2022-10-10T01:23:48.339Z,9.83
2022-10-10T01:24:48.320Z,9.81
2022-10-10T01:25:48.282Z,9.84
2022-10-10T01:26:48.291Z,9.84
2022-10-10T01:27:48.261Z,9.87
2022-10-10T01:28:48.263Z,9.88
2022-10-10T01:29:48.251Z,9.85
2022-10-10T01:30:48.262Z,9.85
2022-10-10T01:31:48.239Z,9.87
2022-10-10T01:32:48.535Z,9.87
2022-10-10T01:33:48.212Z,9.88
2022-10-10T01:34:48.212Z,9.94
2022-10-10T01:35:48.194Z,9.90
2022-10-10T01:36:48.223Z,9.91
2022-10-10T01:37:48.175Z,9.90
2022-10-10T01:38:48.174Z,9.87
2022-10-10T01:39:48.134Z,9.85
2022-10-10T01:40:48.131Z,9.87
2022-10-10T01:41:48.103Z,9.87
2022-10-10T01:42:48.401Z,9.85
2022-10-10T01:43:48.094Z,9.83
2022-10-10T01:44:48.085Z,9.85
2022-10-10T01:45:48.094Z,9.83
2022-10-10T01:46:48.063Z,9.83
2022-10-10T01:47:48.074Z,9.80
2022-10-10T01:48:48.046Z,9.80
2022-10-10T01:49:48.035Z,9.80
2022-10-10T01:50:48.026Z,9.80
2022-10-10T01:51:48.036Z,9.81
2022-10-10T01:52:48.269Z,9.80
2022-10-10T01:53:47.976Z,9.77
2022-10-10T01:54:47.965Z,9.80
2022-10-10T01:55:47.963Z,9.78
2022-10-10T01:56:47.953Z,9.81
2022-10-10T01:57:47.967Z,9.80
2022-10-10T01:58:47.936Z,9.80
2022-10-10T01:59:47.948Z,9.81
2022-10-10T02:00:47.963Z,9.83
2022-10-10T02:01:47.897Z,9.81
2022-10-10T02:02:48.143Z,9.83
2022-10-10T02:03:47.888Z,9.81
2022-10-10T02:04:47.877Z,9.81
2022-10-10T02:05:47.859Z,9.81
2022-10-10T02:06:47.839Z,9.81
2022-10-10T02:07:47.830Z,9.83
2022-10-10T02:08:47.820Z,9.84
2022-10-10T02:09:47.840Z,9.85
2022-10-10T02:10:47.800Z,9.83
2022-10-10T02:11:47.787Z,9.84
2022-10-10T02:12:48.168Z,9.84
2022-10-10T02:13:47.772Z,9.85
2022-10-10T02:14:47.831Z,9.83
2022-10-10T02:15:47.785Z,9.81
2022-10-10T02:16:47.740Z,9.83
2022-10-10T02:17:47.722Z,9.85
2022-10-10T02:18:47.720Z,9.87
2022-10-10T02:19:47.735Z,9.87
2022-10-10T02:20:47.711Z,9.85
2022-10-10T02:21:47.675Z,9.87
2022-10-10T02:22:47.929Z,9.87
2022-10-10T02:23:47.684Z,9.85
2022-10-10T02:24:47.693Z,9.83
2022-10-10T02:25:47.652Z,9.83
2022-10-10T02:26:47.629Z,9.83
2022-10-10T02:27:47.615Z,9.83
2022-10-10T02:28:47.646Z,9.84
2022-10-10T02:29:47.663Z,9.83
2022-10-10T02:30:47.585Z,9.78
2022-10-10T02:31:47.595Z,9.81
2022-10-10T02:32:47.688Z,9.83
2022-10-10T02:33:47.565Z,9.81
2022-10-10T02:34:47.534Z,9.83
2022-10-10T02:35:47.577Z,9.80
2022-10-10T02:36:47.532Z,9.83
2022-10-10T02:37:47.525Z,9.80
2022-10-10T02:38:47.497Z,9.80
2022-10-10T02:39:47.494Z,9.75
2022-10-10T02:40:47.477Z,9.72
2022-10-10T02:41:47.474Z,9.73
2022-10-10T02:42:47.671Z,9.75
2022-10-10T02:43:47.439Z,9.72
2022-10-10T02:44:47.453Z,9.70
2022-10-10T02:45:47.433Z,9.72
2022-10-10T02:46:47.408Z,9.69
2022-10-10T02:47:47.429Z,9.69
2022-10-10T02:48:47.406Z,9.70
2022-10-10T02:49:47.379Z,9.67
2022-10-10T02:50:47.378Z,9.67
2022-10-10T02:51:47.378Z,9.69
2022-10-10T02:52:47.550Z,9.66
2022-10-10T02:53:47.370Z,9.62
2022-10-10T02:54:47.370Z,9.57
2022-10-10T02:55:47.320Z,9.54
2022-10-10T02:56:47.317Z,9.55
2022-10-10T02:57:47.289Z,9.52
2022-10-10T02:58:47.289Z,9.54
2022-10-10T02:59:47.298Z,9.54
2022-10-10T03:00:47.300Z,9.55
2022-10-10T03:01:47.248Z,9.54
2022-10-10T03:02:47.251Z,9.55
2022-10-10T03:03:47.229Z,9.55
2022-10-10T03:04:47.231Z,9.54
2022-10-10T03:05:47.233Z,9.51
2022-10-10T03:06:47.202Z,9.52
2022-10-10T03:07:47.211Z,9.55
2022-10-10T03:08:47.190Z,9.55
2022-10-10T03:09:47.173Z,9.54
2022-10-10T03:10:47.175Z,9.57
2022-10-10T03:11:47.149Z,9.54
2022-10-10T03:12:47.236Z,9.54
2022-10-10T03:13:47.123Z,9.55
2022-10-10T03:14:47.133Z,9.50
2022-10-10T03:15:47.101Z,9.51
2022-10-10T03:16:47.152Z,9.48
2022-10-10T03:17:47.101Z,9.50
2022-10-10T03:18:47.069Z,9.51
2022-10-10T03:19:47.064Z,9.50
2022-10-10T03:20:47.055Z,9.50
2022-10-10T03:21:47.085Z,9.51
2022-10-10T03:22:47.024Z,9.54
2022-10-10T03:23:47.032Z,9.55
2022-10-10T03:24:47.016Z,9.55
2022-10-10T03:25:47.081Z,9.52
2022-10-10T03:26:47.041Z,9.52
2022-10-10T03:27:46.974Z,9.48
2022-10-10T03:28:47.016Z,9.48
2022-10-10T03:29:46.945Z,9.50
2022-10-10T03:30:46.948Z,9.50
2022-10-10T03:31:46.935Z,9.52
2022-10-10T03:32:46.947Z,9.50
2022-10-10T03:33:46.938Z,9.50
2022-10-10T03:34:46.907Z,9.48
2022-10-10T03:35:46.886Z,9.50
2022-10-10T03:36:46.889Z,9.50
2022-10-10T03:37:46.867Z,9.51
2022-10-10T03:38:46.889Z,9.50
2022-10-10T03:39:46.866Z,9.51
2022-10-10T03:40:46.848Z,9.52
2022-10-10T03:41:46.828Z,9.52
2022-10-10T03:42:46.821Z,9.51
2022-10-10T03:43:46.798Z,9.50
2022-10-10T03:44:46.808Z,9.45
2022-10-10T03:45:46.779Z,9.48
2022-10-10T03:46:46.778Z,9.48
2022-10-10T03:47:46.762Z,9.50
2022-10-10T03:48:46.762Z,9.47
2022-10-10T03:49:46.768Z,9.47
2022-10-10T03:50:46.733Z,9.48
2022-10-10T03:51:46.723Z,9.48
2022-10-10T03:52:46.721Z,9.52
2022-10-10T03:53:46.703Z,9.52
2022-10-10T03:54:46.710Z,9.50
2022-10-10T03:55:46.711Z,9.50
2022-10-10T03:56:46.703Z,9.48
2022-10-10T03:57:46.657Z,9.48
2022-10-10T03:58:46.667Z,9.42
2022-10-10T03:59:46.667Z,9.42
2022-10-10T04:00:46.621Z,9.44
2022-10-10T04:01:46.630Z,9.45
2022-10-10T04:02:46.603Z,9.45
2022-10-10T04:03:51.269Z,9.45
2022-10-10T04:04:47.633Z,9.44
2022-10-10T04:05:46.584Z,9.45
2022-10-10T04:06:46.557Z,9.47
2022-10-10T04:07:46.566Z,9.48
2022-10-10T04:08:46.542Z,9.47
2022-10-10T04:09:46.526Z,9.44
2022-10-10T04:10:46.527Z,9.40
2022-10-10T04:11:46.497Z,9.40
2022-10-10T04:12:46.494Z,9.37
2022-10-10T04:13:46.495Z,9.36
2022-10-10T04:14:46.489Z,9.34
2022-10-10T04:15:46.456Z,9.32
2022-10-10T04:16:46.530Z,9.30
2022-10-10T04:17:46.434Z,9.30
2022-10-10T04:18:46.425Z,9.32
2022-10-10T04:19:46.416Z,9.32
2022-10-10T04:20:46.496Z,9.32
2022-10-10T04:21:46.389Z,9.36
2022-10-10T04:22:46.411Z,9.33
2022-10-10T04:23:46.367Z,9.30
2022-10-10T04:24:46.378Z,9.27
2022-10-10T04:25:46.347Z,9.32
2022-10-10T04:26:46.357Z,9.30
2022-10-10T04:27:46.331Z,9.32
2022-10-10T04:28:46.414Z,9.34
2022-10-10T04:29:46.321Z,9.33
2022-10-10T04:30:46.310Z,9.29
2022-10-10T04:31:46.307Z,9.27
2022-10-10T04:32:46.295Z,9.29
2022-10-10T04:33:46.286Z,9.24
2022-10-10T04:34:46.279Z,9.26
2022-10-10T04:35:46.250Z,9.29
2022-10-10T04:36:46.230Z,9.24
2022-10-10T04:37:46.228Z,9.27
2022-10-10T04:38:46.243Z,9.27
2022-10-10T04:39:46.199Z,9.27
2022-10-10T04:40:46.183Z,9.27
2022-10-10T04:41:46.183Z,9.22
2022-10-10T04:42:46.170Z,9.18
2022-10-10T04:43:46.181Z,9.18
2022-10-10T04:44:46.216Z,9.18
2022-10-10T04:45:46.135Z,9.16
2022-10-10T04:46:46.123Z,9.16
2022-10-10T04:47:46.134Z,9.15
2022-10-10T04:48:46.107Z,9.19
2022-10-10T04:49:46.124Z,9.19
2022-10-10T04:50:46.085Z,9.19
2022-10-10T04:51:46.076Z,9.19
2022-10-10T04:52:46.064Z,9.18
2022-10-10T04:53:50.211Z,9.19
2022-10-10T04:54:46.046Z,9.23
2022-10-10T04:55:46.053Z,9.24
2022-10-10T04:56:46.025Z,9.24
2022-10-10T04:57:46.014Z,9.27
2022-10-10T04:58:46.015Z,9.26
2022-10-10T04:59:45.997Z,9.27
2022-10-10T05:00:45.995Z,9.26
2022-10-10T05:01:45.980Z,9.26
2022-10-10T05:02:45.976Z,9.24
2022-10-10T05:03:45.942Z,9.19
2022-10-10T05:04:45.927Z,9.22
2022-10-10T05:05:45.966Z,9.22
2022-10-10T05:06:45.909Z,9.23
2022-10-10T05:07:45.906Z,9.22
2022-10-10T05:08:45.890Z,9.24
2022-10-10T05:09:45.882Z,9.26
2022-10-10T05:10:45.879Z,9.26
2022-10-10T05:11:45.903Z,9.23
2022-10-10T05:12:45.845Z,9.26
2022-10-10T05:13:45.838Z,9.26
2022-10-10T05:14:48.091Z,9.26
2022-10-10T05:15:45.820Z,9.22
2022-10-10T05:16:45.844Z,9.24
2022-10-10T05:17:45.805Z,9.24
2022-10-10T05:18:45.790Z,9.24
2022-10-10T05:19:45.772Z,9.27
2022-10-10T05:20:45.758Z,9.29
2022-10-10T05:21:45.780Z,9.29
2022-10-10T05:22:45.748Z,9.29
2022-10-10T05:23:45.728Z,9.27
2022-10-10T05:24:45.720Z,9.27
2022-10-10T05:25:45.732Z,9.26
2022-10-10T05:26:45.689Z,9.24
2022-10-10T05:27:45.716Z,9.26
2022-10-10T05:28:45.712Z,9.23
2022-10-10T05:29:45.662Z,9.19
2022-10-10T05:30:45.661Z,9.19
2022-10-10T05:31:45.645Z,9.19
2022-10-10T05:32:45.632Z,9.18
2022-10-10T05:33:45.651Z,9.22
2022-10-10T05:34:45.602Z,9.19
2022-10-10T05:35:45.985Z,9.19
2022-10-10T05:36:45.582Z,9.15
2022-10-10T05:37:45.581Z,9.15
2022-10-10T05:38:45.583Z,9.15
2022-10-10T05:39:45.575Z,9.09
2022-10-10T05:40:45.548Z,9.08
2022-10-10T05:41:45.555Z,9.03
2022-10-10T05:42:45.554Z,9.01
2022-10-10T05:43:45.515Z,9.03
2022-10-10T05:44:45.503Z,9.04
2022-10-10T05:45:45.534Z,9.06
2022-10-10T05:46:45.501Z,9.06
2022-10-10T05:47:45.488Z,9.06
2022-10-10T05:48:45.458Z,9.04
2022-10-10T05:49:45.454Z,9.04
2022-10-10T05:50:45.475Z,9.06
2022-10-10T05:51:45.426Z,9.06
2022-10-10T05:52:45.428Z,9.08
2022-10-10T05:53:45.434Z,9.08
2022-10-10T05:54:45.398Z,9.04
2022-10-10T05:55:45.401Z,9.04
2022-10-10T05:56:45.427Z,9.08
2022-10-10T05:57:45.368Z,9.09
2022-10-10T05:58:45.389Z,9.11
2022-10-10T05:59:45.358Z,9.08
2022-10-10T06:00:45.363Z,9.06
2022-10-10T06:01:45.319Z,9.08
2022-10-10T06:02:45.364Z,9.06
2022-10-10T06:03:45.329Z,9.09
2022-10-10T06:04:45.289Z,9.08
2022-10-10T06:05:45.369Z,9.06
2022-10-10T06:06:45.275Z,9.04
2022-10-10T06:08:04.735Z,9.04
2022-10-10T06:08:46.415Z,9.03
2022-10-10T06:09:45.243Z,9.03
2022-10-10T06:10:45.229Z,9.04
2022-10-10T06:11:45.210Z,9.03
2022-10-10T06:12:45.219Z,9.03
2022-10-10T06:13:45.221Z,9.04
2022-10-10T06:14:45.210Z,9.06
2022-10-10T06:15:45.184Z,9.06
2022-10-10T06:16:45.161Z,9.08
2022-10-10T06:17:45.158Z,9.12
2022-10-10T06:18:45.142Z,9.12
2022-10-10T06:19:45.180Z,9.09
2022-10-10T06:20:45.133Z,9.09
2022-10-10T06:21:45.116Z,9.09
2022-10-10T06:22:45.103Z,9.09
2022-10-10T06:23:45.083Z,9.11
2022-10-10T06:24:47.478Z,9.08
2022-10-10T06:25:46.053Z,9.11
2022-10-10T06:26:45.062Z,9.14
2022-10-10T06:27:45.058Z,9.15
2022-10-10T06:28:45.071Z,9.12
2022-10-10T06:29:45.043Z,9.14
2022-10-10T06:30:45.059Z,9.18
2022-10-10T06:31:44.985Z,9.18
2022-10-10T06:32:44.989Z,9.19
2022-10-10T06:33:44.964Z,9.22
2022-10-10T06:34:44.975Z,9.22
2022-10-10T06:35:44.972Z,9.22
2022-10-10T06:36:44.953Z,9.22
2022-10-10T06:37:44.934Z,9.14
2022-10-10T06:38:44.925Z,9.15
2022-10-10T06:39:44.906Z,9.15
2022-10-10T06:40:44.917Z,9.14
2022-10-10T06:41:44.888Z,9.12
2022-10-10T06:42:44.889Z,9.11
2022-10-10T06:43:44.868Z,9.11
2022-10-10T06:44:44.866Z,9.11
2022-10-10T06:45:44.854Z,9.11
2022-10-10T06:46:44.858Z,9.09
2022-10-10T06:47:44.858Z,9.09
2022-10-10T06:48:44.820Z,9.09
2022-10-10T06:49:44.846Z,9.14
2022-10-10T06:50:44.813Z,9.12
2022-10-10T06:51:44.795Z,9.14
2022-10-10T06:52:44.770Z,9.14
2022-10-10T06:53:44.767Z,9.14
2022-10-10T06:54:44.749Z,9.14
2022-10-10T06:55:44.750Z,9.14
2022-10-10T06:56:44.742Z,9.15
2022-10-10T06:57:44.742Z,9.12
2022-10-10T06:58:44.749Z,9.14
2022-10-10T06:59:44.698Z,9.12
2022-10-10T07:00:44.701Z,9.16
2022-10-10T07:01:44.748Z,9.16
2022-10-10T07:02:44.711Z,9.18
2022-10-10T07:03:44.651Z,9.19
2022-10-10T07:04:44.662Z,9.18
2022-10-10T07:05:44.630Z,9.22
2022-10-10T07:06:44.641Z,9.19
2022-10-10T07:07:44.615Z,9.22
2022-10-10T07:08:44.631Z,9.23
2022-10-10T07:09:44.605Z,9.24
2022-10-10T07:10:44.591Z,9.24
2022-10-10T07:11:44.599Z,9.24
2022-10-10T07:12:45.239Z,9.24
2022-10-10T07:13:44.606Z,9.24
2022-10-10T07:14:44.539Z,9.26
2022-10-10T07:15:44.533Z,9.26
2022-10-10T07:16:44.556Z,9.27
2022-10-10T07:17:44.516Z,9.27
2022-10-10T07:18:44.513Z,9.27
2022-10-10T07:19:44.522Z,9.27
2022-10-10T07:20:44.488Z,9.30
2022-10-10T07:21:44.476Z,9.32
2022-10-10T07:22:44.495Z,9.34
2022-10-10T07:23:44.455Z,9.34
2022-10-10T07:24:44.436Z,9.34
2022-10-10T07:25:44.466Z,9.37
2022-10-10T07:26:44.425Z,9.37
2022-10-10T07:27:44.436Z,9.42
2022-10-10T07:28:44.428Z,9.42
2022-10-10T07:29:44.376Z,9.42
2022-10-10T07:30:44.414Z,9.42
2022-10-10T07:31:44.379Z,9.45
2022-10-10T07:32:44.377Z,9.45
2022-10-10T07:33:49.649Z,9.47
2022-10-10T07:34:45.317Z,9.48
2022-10-10T07:35:44.328Z,9.50
2022-10-10T07:36:44.348Z,9.48
2022-10-10T07:37:44.309Z,9.50
2022-10-10T07:38:44.290Z,9.52
2022-10-10T07:39:44.274Z,9.51
2022-10-10T07:40:44.280Z,9.52
2022-10-10T07:41:44.251Z,9.57
2022-10-10T07:42:44.274Z,9.57
2022-10-10T07:43:44.250Z,9.57
2022-10-10T07:44:44.227Z,9.55
2022-10-10T07:45:44.207Z,9.55
2022-10-10T07:46:44.200Z,9.59
2022-10-10T07:47:44.221Z,9.62
2022-10-10T07:48:44.184Z,9.65
2022-10-10T07:49:44.182Z,9.66
2022-10-10T07:50:44.150Z,9.67
2022-10-10T07:51:44.170Z,9.69
2022-10-10T07:52:44.152Z,9.70
2022-10-10T07:53:44.162Z,9.73
2022-10-10T07:54:44.122Z,9.75
2022-10-10T07:55:44.145Z,9.75
2022-10-10T07:56:44.103Z,9.78
2022-10-10T07:57:44.122Z,9.80
2022-10-10T07:58:44.074Z,9.81
2022-10-10T07:59:44.072Z,9.83
2022-10-10T08:00:44.078Z,9.83
2022-10-10T08:01:44.089Z,9.87
2022-10-10T08:02:44.065Z,9.85
2022-10-10T08:03:44.091Z,9.87
2022-10-10T08:04:44.004Z,9.90
2022-10-10T08:05:44.009Z,9.93
2022-10-10T08:06:43.991Z,9.94
2022-10-10T08:07:44.026Z,9.96
2022-10-10T08:08:50.951Z,9.99
2022-10-10T08:09:44.954Z,10.01
2022-10-10T08:10:43.975Z,10.02
2022-10-10T08:11:43.935Z,10.05
2022-10-10T08:12:43.946Z,10.06
2022-10-10T08:13:43.905Z,10.10
2022-10-10T08:14:43.908Z,10.09
2022-10-10T08:15:43.886Z,10.10
2022-10-10T08:16:43.917Z,10.12
2022-10-10T08:17:43.938Z,10.17
2022-10-10T08:18:43.888Z,10.17
2022-10-10T08:19:43.897Z,10.20
2022-10-10T08:20:43.837Z,10.21
2022-10-10T08:21:43.838Z,10.26
2022-10-10T08:22:43.849Z,10.30
2022-10-10T08:23:43.870Z,10.28
2022-10-10T08:24:43.800Z,10.34
2022-10-10T08:25:43.875Z,10.36
2022-10-10T08:26:43.825Z,10.39
2022-10-10T08:27:43.765Z,10.38
2022-10-10T08:28:43.891Z,10.41
2022-10-10T08:29:43.739Z,10.45
2022-10-10T08:30:43.741Z,10.48
2022-10-10T08:31:43.803Z,10.52
2022-10-10T08:32:43.711Z,10.55
2022-10-10T08:33:43.729Z,10.60
2022-10-10T08:34:43.691Z,10.61
2022-10-10T08:35:43.682Z,10.64
2022-10-10T08:36:43.678Z,10.65
2022-10-10T08:37:43.694Z,10.68
2022-10-10T08:38:43.648Z,10.72
2022-10-10T08:39:43.682Z,10.73
2022-10-10T08:40:43.652Z,10.76
2022-10-10T08:41:43.622Z,10.79
2022-10-10T08:42:50.297Z,10.79
2022-10-10T08:43:44.622Z,10.83
2022-10-10T08:44:43.582Z,10.86
2022-10-10T08:45:43.636Z,10.90
2022-10-10T08:46:43.560Z,10.93
2022-10-10T08:47:43.625Z,10.93
2022-10-10T08:48:43.541Z,10.94
2022-10-10T08:49:43.541Z,10.97
2022-10-10T08:50:43.513Z,10.98
2022-10-10T08:51:43.515Z,11.01
2022-10-10T08:52:43.523Z,11.04
2022-10-10T08:53:43.503Z,11.08
2022-10-10T08:54:43.494Z,11.09
2022-10-10T08:55:43.500Z,11.12
2022-10-10T08:56:43.513Z,11.15
2022-10-10T08:57:43.474Z,11.16
2022-10-10T08:58:43.474Z,11.18
2022-10-10T08:59:43.611Z,11.20
2022-10-10T09:00:43.446Z,11.25
2022-10-10T09:02:18.127Z,11.27
2022-10-10T09:03:03.137Z,11.31
2022-10-10T09:03:44.388Z,11.31
2022-10-10T09:04:43.491Z,11.36
2022-10-10T09:05:44.296Z,11.36
2022-10-10T09:06:43.636Z,11.38
2022-10-10T09:07:43.376Z,11.43
2022-10-10T09:08:43.327Z,11.48
2022-10-10T09:09:43.334Z,11.51
2022-10-10T09:10:43.488Z,11.56
2022-10-10T09:11:43.349Z,11.56
2022-10-10T09:12:43.279Z,11.56
2022-10-10T09:13:43.357Z,11.59
2022-10-10T09:14:43.288Z,11.62
2022-10-10T09:15:43.249Z,11.69
2022-10-10T09:16:43.340Z,11.70
2022-10-10T09:17:43.240Z,11.73
2022-10-10T09:18:43.239Z,11.74
2022-10-10T09:19:43.209Z,11.76
2022-10-10T09:20:43.196Z,11.77
2022-10-10T09:21:43.434Z,11.77
2022-10-10T09:22:43.200Z,11.79
2022-10-10T09:23:43.172Z,11.80
2022-10-10T09:24:43.704Z,11.82
2022-10-10T09:25:43.141Z,11.84
2022-10-10T09:26:43.201Z,11.85
2022-10-10T09:27:43.122Z,11.87
2022-10-10T09:28:43.189Z,11.89
2022-10-10T09:29:43.104Z,11.89
2022-10-10T09:30:43.095Z,11.95
2022-10-10T09:31:43.155Z,11.95
2022-10-10T09:32:43.051Z,11.96
2022-10-10T09:33:43.090Z,12.00
2022-10-10T09:34:43.051Z,12.04
2022-10-10T09:35:43.042Z,12.04
2022-10-10T09:36:43.035Z,12.03
2022-10-10T09:37:47.328Z,12.05
2022-10-10T09:38:43.008Z,12.05
2022-10-10T09:39:42.994Z,12.07
2022-10-10T09:40:42.992Z,12.10
2022-10-10T09:41:43.145Z,12.10
2022-10-10T09:42:42.946Z,12.08
2022-10-10T09:43:42.941Z,12.10
2022-10-10T09:44:42.965Z,12.14
2022-10-10T09:45:42.944Z,12.18
2022-10-10T09:46:42.905Z,12.21
2022-10-10T09:47:42.927Z,12.22
2022-10-10T09:48:42.884Z,12.22
2022-10-10T09:49:42.885Z,12.23
2022-10-10T09:50:43.910Z,12.25
2022-10-10T09:51:42.857Z,12.25
2022-10-10T09:52:42.856Z,12.26
2022-10-10T09:53:42.826Z,12.28
2022-10-10T09:54:42.881Z,12.29
2022-10-10T09:55:42.876Z,12.32
2022-10-10T09:56:42.807Z,12.33
2022-10-10T09:57:42.808Z,12.32
2022-10-10T09:58:42.807Z,12.33
2022-10-10T09:59:42.808Z,12.36
2022-10-10T10:00:42.799Z,12.41
2022-10-10T10:01:42.759Z,12.41
2022-10-10T10:02:42.741Z,12.44
2022-10-10T10:03:42.718Z,12.46
2022-10-10T10:04:42.760Z,12.50
2022-10-10T10:05:42.739Z,12.50
2022-10-10T10:06:42.721Z,12.51
2022-10-10T10:07:42.693Z,12.55
2022-10-10T10:08:42.834Z,12.55
2022-10-10T10:09:42.734Z,12.58
2022-10-10T10:10:42.650Z,12.55
2022-10-10T10:11:42.671Z,12.59
2022-10-10T10:12:42.633Z,12.58
2022-10-10T10:13:42.616Z,12.55
2022-10-10T10:14:42.604Z,12.54
2022-10-10T10:15:42.592Z,12.51
2022-10-10T10:16:42.632Z,12.50
2022-10-10T10:17:42.612Z,12.47
2022-10-10T10:18:42.584Z,12.46
2022-10-10T10:19:42.560Z,12.44
2022-10-10T10:20:42.544Z,12.43
2022-10-10T10:21:42.583Z,12.43
2022-10-10T10:22:42.552Z,12.44
2022-10-10T10:23:42.505Z,12.43
2022-10-10T10:24:42.533Z,12.40
2022-10-10T10:25:42.485Z,12.38
2022-10-10T10:26:42.493Z,12.40
2022-10-10T10:27:42.465Z,12.38
2022-10-10T10:28:42.540Z,12.38
2022-10-10T10:29:42.462Z,12.40
2022-10-10T10:30:42.446Z,12.36
2022-10-10T10:31:43.929Z,12.36
2022-10-10T10:32:42.563Z,12.35
2022-10-10T10:33:42.436Z,12.38
2022-10-10T10:34:42.386Z,12.36
2022-10-10T10:35:42.407Z,12.36
2022-10-10T10:36:42.374Z,12.35
2022-10-10T10:37:42.355Z,12.40
2022-10-10T10:38:42.366Z,12.40
2022-10-10T10:39:42.376Z,12.38
2022-10-10T10:40:42.326Z,12.43
2022-10-10T10:41:42.317Z,12.38
2022-10-10T10:42:42.338Z,12.40
2022-10-10T10:43:42.315Z,12.40
2022-10-10T10:44:42.316Z,12.38
2022-10-10T10:45:42.328Z,12.40
2022-10-10T10:46:42.277Z,12.40
2022-10-10T10:47:42.261Z,12.43
2022-10-10T10:48:42.250Z,12.43
2022-10-10T10:49:42.230Z,12.43
2022-10-10T10:50:42.261Z,12.43
2022-10-10T10:51:42.199Z,12.44
2022-10-10T10:52:42.190Z,12.47
2022-10-10T10:53:42.189Z,12.48
2022-10-10T10:54:42.383Z,12.53
2022-10-10T10:55:42.165Z,12.50
2022-10-10T10:56:42.177Z,12.50
2022-10-10T10:58:10.301Z,12.54
2022-10-10T10:59:22.551Z,12.59
2022-10-10T11:00:22.207Z,12.61
2022-10-10T11:01:23.545Z,12.65
2022-10-10T11:01:55.897Z,12.69
2022-10-10T11:02:57.409Z,12.73
2022-10-10T11:05:16.215Z,12.76
2022-10-10T11:05:17.996Z,12.80
2022-10-10T11:05:43.221Z,12.81
2022-10-10T11:06:53.918Z,12.84
2022-10-10T11:07:43.144Z,12.87
2022-10-10T11:08:42.023Z,12.91
2022-10-10T11:09:50.474Z,12.91
2022-10-10T11:10:43.015Z,12.90
2022-10-10T11:11:41.997Z,12.90
2022-10-10T11:12:42.092Z,12.91
2022-10-10T11:13:41.997Z,12.90
2022-10-10T11:14:41.955Z,12.88
2022-10-10T11:16:48.361Z,12.88
2022-10-10T11:17:42.944Z,12.91
2022-10-10T11:18:41.916Z,12.91
2022-10-10T11:19:41.990Z,12.96
2022-10-10T11:20:41.893Z,12.99
2022-10-10T11:21:41.901Z,13.02
2022-10-10T11:22:46.254Z,13.06
2022-10-10T11:23:41.866Z,13.09
2022-10-10T11:24:41.845Z,13.13
2022-10-10T11:25:41.839Z,13.14
2022-10-10T11:26:41.859Z,13.19
2022-10-10T11:27:41.816Z,13.23
2022-10-10T11:28:45.011Z,13.23
2022-10-10T11:29:42.799Z,13.24
2022-10-10T11:30:41.795Z,13.26
2022-10-10T11:31:41.822Z,13.24
2022-10-10T11:32:41.773Z,13.26
2022-10-10T11:33:41.771Z,13.26
2022-10-10T11:34:41.757Z,13.27
2022-10-10T11:35:41.760Z,13.29
2022-10-10T11:36:41.752Z,13.30
2022-10-10T11:37:41.767Z,13.27
2022-10-10T11:38:41.699Z,13.29
2022-10-10T11:39:41.750Z,13.32
2022-10-10T11:40:41.670Z,13.27
2022-10-10T11:41:41.702Z,13.30
2022-10-10T11:42:41.661Z,13.29
2022-10-10T11:43:41.673Z,13.29
2022-10-10T11:44:41.671Z,13.32
2022-10-10T11:45:41.631Z,13.36
2022-10-10T11:46:41.655Z,13.40
2022-10-10T11:47:41.600Z,13.42
2022-10-10T11:48:41.603Z,13.47
2022-10-10T11:49:41.583Z,13.54
2022-10-10T11:50:41.578Z,13.57
2022-10-10T11:51:41.555Z,13.57
2022-10-10T11:52:41.607Z,13.67
2022-10-10T11:53:41.550Z,13.73
2022-10-10T11:54:41.523Z,13.73
2022-10-10T11:55:41.518Z,13.73
2022-10-10T11:56:41.511Z,13.72
2022-10-10T11:57:41.568Z,13.68
2022-10-10T11:58:41.475Z,13.75
2022-10-10T11:59:41.501Z,13.80
2022-10-10T12:00:41.495Z,13.79
2022-10-10T12:01:41.447Z,13.86
2022-10-10T12:02:41.466Z,13.86
2022-10-10T12:03:41.425Z,13.91
2022-10-10T12:04:41.434Z,13.94
2022-10-10T12:05:41.435Z,13.96
2022-10-10T12:06:41.399Z,14.00
2022-10-10T12:07:41.409Z,14.00
2022-10-10T12:08:41.388Z,14.01
2022-10-10T12:09:41.368Z,14.01
2022-10-10T12:10:41.349Z,14.03
2022-10-10T12:11:41.333Z,14.12
2022-10-10T12:12:41.362Z,14.18
2022-10-10T12:13:41.328Z,14.22
2022-10-10T12:14:41.340Z,14.28
2022-10-10T12:15:43.499Z,14.28
2022-10-10T12:16:41.301Z,14.30
2022-10-10T12:17:41.276Z,14.27
2022-10-10T12:18:41.291Z,14.28
2022-10-10T12:19:41.248Z,14.28
2022-10-10T12:20:41.242Z,14.26
2022-10-10T12:21:41.252Z,14.26
2022-10-10T12:22:41.239Z,14.22
2022-10-10T12:23:41.248Z,14.23
2022-10-10T12:24:43.140Z,14.26
2022-10-10T12:25:41.224Z,14.27
2022-10-10T12:26:41.174Z,14.28
2022-10-10T12:27:41.237Z,14.30
2022-10-10T12:28:41.256Z,14.27
2022-10-10T12:29:41.164Z,14.27
2022-10-10T12:30:41.122Z,14.26
2022-10-10T12:31:41.166Z,14.27
2022-10-10T12:32:41.162Z,14.23
2022-10-10T12:33:41.137Z,14.26
2022-10-10T12:34:41.092Z,14.27
2022-10-10T12:35:41.085Z,14.30
2022-10-10T12:36:41.090Z,14.30
2022-10-10T12:37:41.054Z,14.33
2022-10-10T12:38:41.066Z,14.38
2022-10-10T12:39:41.062Z,14.48
2022-10-10T12:40:41.021Z,14.53
2022-10-10T12:41:46.154Z,14.53
2022-10-10T12:42:42.056Z,14.56
2022-10-10T12:43:41.023Z,14.59
2022-10-10T12:44:41.036Z,14.61
2022-10-10T12:45:41.029Z,14.61
2022-10-10T12:46:40.965Z,14.58
2022-10-10T12:48:04.044Z,14.53
2022-10-10T12:48:41.945Z,14.52
2022-10-10T12:49:40.955Z,14.51
2022-10-10T12:50:40.919Z,14.49
2022-10-10T12:51:40.938Z,14.51
2022-10-10T12:52:41.015Z,14.46
2022-10-10T12:53:40.926Z,14.40
2022-10-10T12:54:40.907Z,14.37
2022-10-10T12:55:40.868Z,14.37
2022-10-10T12:56:40.870Z,14.36
2022-10-10T12:57:40.852Z,14.34
2022-10-10T12:58:40.848Z,14.34
2022-10-10T12:59:40.862Z,14.36
2022-10-10T13:00:40.810Z,14.37
2022-10-10T13:01:40.902Z,14.40
2022-10-10T13:02:40.802Z,14.44
2022-10-10T13:03:40.823Z,14.44
2022-10-10T13:04:40.794Z,14.41
2022-10-10T13:05:40.749Z,14.38
2022-10-10T13:06:40.731Z,14.38
2022-10-10T13:07:40.735Z,14.37
2022-10-10T13:08:40.713Z,14.36
2022-10-10T13:09:40.753Z,14.33